KHCR

Heber City Municipal - Russ McDonald Field Airport

Heber, Utah, USA
KHCR 180535Z 1806/1906 VRB04KT P6SM VCSH BKN040 OVC060 FM181500 VRB04KT P6SM SCT060 BKN120 FM190200 VRB04KT P6SM SCT150
Issued Valid From Valid To
Oct-18 @ 05:35 UTC
(6 hours ago)
Oct-18 @ 06:00 UTC
(6 hours ago)
Oct-19 @ 06:00 UTC
(in 18 hours)
Oct-18 @ 06:00 to Oct-18 @ 15:00
KHCR 180535Z 1806/1906 VRB04KT P6SM VCSH BKN040 OVC060
Wind Visibility Clouds
Variable at 4 knots Greater than 6 miles
  • Broken at 4,000' AGL
  • Overcast at 6,000' AGL
From Oct-18 @ 15:00 to Oct-19 @ 02:00
FM181500 VRB04KT P6SM SCT060 BKN120
Wind Visibility Clouds
Variable at 4 knots Greater than 6 miles
  • Scattered at 6,000' AGL
  • Broken at 12,000' AGL
From Oct-19 @ 02:00 to Oct-19 @ 06:00
FM190200 VRB04KT P6SM SCT150
Wind Visibility Clouds
Variable at 4 knots Greater than 6 miles
  • Scattered at 15,000' AGL
KHCR 180535Z 1806/1906 VRB04KT P6SM VCSH BKN040 OVC060 FM181500 VRB04KT P6SM SCT060 BKN120 FM190200 VRB04KT P6SM SCT150
Issued Oct-18 @ 05:35 UTC
(6 hours ago)
Valid From Oct-18 @ 06:00 UTC
(6 hours ago)
Valid To Oct-19 @ 06:00 UTC
(in 18 hours)
Oct-18 @ 06:00 - Oct-18 @ 15:00
Wind Visibility
Variable at 4 knots Greater than 6 miles
Clouds
  • Broken at 4,000' AGL
  • Overcast at 6,000' AGL
From Oct-18 @ 15:00 - Oct-19 @ 02:00
Wind Visibility
Variable at 4 knots Greater than 6 miles
Clouds
  • Scattered at 6,000' AGL
  • Broken at 12,000' AGL
From Oct-19 @ 02:00 - Oct-19 @ 06:00
Wind Visibility
Variable at 4 knots Greater than 6 miles
Clouds
  • Scattered at 15,000' AGL